createdAt,value
2023-02-09T00:02:06.471Z,4.70
2023-02-09T00:04:43.144Z,4.60
2023-02-09T00:07:20.801Z,5.00
2023-02-09T00:09:58.159Z,4.60
2023-02-09T00:12:51.799Z,3.30
2023-02-09T00:15:29.551Z,4.90
2023-02-09T00:18:07.569Z,5.00
2023-02-09T00:20:44.417Z,4.00
2023-02-09T00:23:21.445Z,5.20
2023-02-09T00:25:58.281Z,4.20
2023-02-09T00:28:35.416Z,4.20
2023-02-09T00:31:17.321Z,4.30
2023-02-09T00:33:54.186Z,4.70
2023-02-09T00:36:31.606Z,4.30
2023-02-09T00:39:07.419Z,4.50
2023-02-09T00:42:00.879Z,4.90
2023-02-09T00:44:39.088Z,4.30
2023-02-09T00:47:17.656Z,4.80
2023-02-09T00:49:54.717Z,4.40
2023-02-09T00:52:32.671Z,4.50
2023-02-09T00:55:10.353Z,4.30
2023-02-09T00:57:48.034Z,4.20
2023-02-09T01:00:26.709Z,4.50
2023-02-09T01:03:05.745Z,3.50
2023-02-09T01:05:43.902Z,3.40
2023-02-09T01:08:21.614Z,3.50
2023-02-09T01:10:58.489Z,3.90
2023-02-09T01:13:36.069Z,3.60
2023-02-09T01:16:16.683Z,4.80
2023-02-09T01:18:53.465Z,3.90
2023-02-09T01:21:30.026Z,3.30
2023-02-09T01:24:06.905Z,3.80
2023-02-09T01:26:44.112Z,3.00
2023-02-09T01:29:25.206Z,3.70
2023-02-09T01:32:03.697Z,3.90
2023-02-09T01:34:40.947Z,4.50
2023-02-09T01:37:17.350Z,4.20
2023-02-09T01:39:54.515Z,4.20
2023-02-09T01:42:31.754Z,4.50
2023-02-09T01:45:32.754Z,4.00
2023-02-09T01:48:10.277Z,4.80
2023-02-09T01:50:53.067Z,4.30
2023-02-09T01:53:32.132Z,3.40
2023-02-09T01:56:15.140Z,3.70
2023-02-09T01:58:53.058Z,4.40
2023-02-09T02:01:30.288Z,4.10
2023-02-09T02:04:07.225Z,3.70
2023-02-09T02:06:45.805Z,3.90
2023-02-09T02:09:23.359Z,3.80
2023-02-09T02:12:00.126Z,4.30
2023-02-09T02:14:41.822Z,4.50
2023-02-09T02:17:38.998Z,3.10
2023-02-09T02:21:07.622Z,3.50
2023-02-09T02:24:02.858Z,4.00
2023-02-09T02:27:05.027Z,4.10
2023-02-09T02:30:17.041Z,3.70
2023-02-09T02:33:22.943Z,3.30
2023-02-09T02:36:10.093Z,4.10
2023-02-09T02:38:55.290Z,3.20
2023-02-09T02:41:52.501Z,3.90
2023-02-09T02:44:33.003Z,3.70
2023-02-09T02:47:16.348Z,4.50
2023-02-09T02:50:02.112Z,4.10
2023-02-09T02:52:41.420Z,4.40
2023-02-09T02:55:26.867Z,3.20
2023-02-09T02:58:10.507Z,3.60
2023-02-09T03:00:55.672Z,4.10
2023-02-09T03:03:37.870Z,3.30
2023-02-09T03:06:18.249Z,2.90
2023-02-09T03:09:00.159Z,3.50
2023-02-09T03:11:42.978Z,3.40
2023-02-09T03:14:46.911Z,2.80
2023-02-09T03:17:36.996Z,3.60
2023-02-09T03:20:24.869Z,3.80
2023-02-09T03:23:07.318Z,3.50
2023-02-09T03:25:52.791Z,3.80
2023-02-09T03:28:36.231Z,3.50
2023-02-09T03:31:12.816Z,2.90
2023-02-09T03:33:49.367Z,3.50
2023-02-09T03:36:28.682Z,4.10
2023-02-09T03:39:05.050Z,3.90
2023-02-09T03:41:41.828Z,4.20
2023-02-09T03:44:31.439Z,4.50
2023-02-09T03:47:11.123Z,4.40
2023-02-09T03:49:49.492Z,4.10
2023-02-09T03:52:26.822Z,4.70
2023-02-09T03:55:04.907Z,4.20
2023-02-09T03:57:41.808Z,3.90
2023-02-09T04:00:24.069Z,3.90
2023-02-09T04:03:00.576Z,4.70
2023-02-09T04:05:38.482Z,4.00
2023-02-09T04:08:15.037Z,3.00
2023-02-09T04:10:52.067Z,4.50
2023-02-09T04:13:29.233Z,4.00
2023-02-09T04:16:07.557Z,3.80
2023-02-09T04:18:44.676Z,4.00
2023-02-09T04:21:21.944Z,4.30
2023-02-09T04:23:59.582Z,3.50
2023-02-09T04:26:37.220Z,4.40
2023-02-09T04:29:14.928Z,4.70
2023-02-09T04:31:51.905Z,4.50
2023-02-09T04:34:29.477Z,3.90
2023-02-09T04:37:05.982Z,4.00
2023-02-09T04:39:42.555Z,3.90
2023-02-09T04:42:20.475Z,3.70
2023-02-09T04:44:57.509Z,3.60
2023-02-09T04:47:33.820Z,4.20
2023-02-09T04:50:13.065Z,3.70
2023-02-09T04:52:50.132Z,4.30
2023-02-09T04:55:27.814Z,4.30
2023-02-09T04:58:20.283Z,4.00
2023-02-09T05:01:00.673Z,4.30
2023-02-09T05:03:39.205Z,3.60
2023-02-09T05:06:16.633Z,3.80
2023-02-09T05:08:52.797Z,4.40
2023-02-09T05:11:29.776Z,4.70
2023-02-09T05:14:06.610Z,4.80
2023-02-09T05:16:43.816Z,3.90
2023-02-09T05:19:20.866Z,3.60
2023-02-09T05:21:57.311Z,3.70
2023-02-09T05:24:34.377Z,3.50
2023-02-09T05:27:11.053Z,4.00
2023-02-09T05:29:48.324Z,4.30
2023-02-09T05:32:25.507Z,4.50
2023-02-09T05:35:02.668Z,3.50
2023-02-09T05:37:39.500Z,3.40
2023-02-09T05:40:19.047Z,3.70
2023-02-09T05:42:56.295Z,4.00
2023-02-09T05:45:33.249Z,4.90
2023-02-09T05:48:11.109Z,3.80
2023-02-09T05:50:48.017Z,3.90
2023-02-09T05:53:26.202Z,4.20
2023-02-09T05:56:03.037Z,3.80
2023-02-09T05:58:39.069Z,3.80
2023-02-09T06:01:16.189Z,3.50
2023-02-09T06:03:53.534Z,4.60
2023-02-09T06:06:29.909Z,4.40
2023-02-09T06:09:07.162Z,4.60
2023-02-09T06:11:44.404Z,4.80
2023-02-09T06:14:21.398Z,4.60
2023-02-09T06:16:57.986Z,4.40
2023-02-09T06:19:35.078Z,5.00
2023-02-09T06:22:11.887Z,4.60
2023-02-09T06:24:48.901Z,6.30
2023-02-09T06:27:25.813Z,4.80
2023-02-09T06:30:02.156Z,5.80
2023-02-09T06:32:39.479Z,4.40
2023-02-09T06:35:17.265Z,4.60
2023-02-09T06:37:53.711Z,4.50
2023-02-09T06:40:31.136Z,4.70
2023-02-09T06:43:07.883Z,4.10
2023-02-09T06:45:45.302Z,4.60
2023-02-09T06:48:22.520Z,4.90
2023-02-09T06:50:59.156Z,4.10
2023-02-09T06:53:36.840Z,4.90
2023-02-09T06:56:16.000Z,4.80
2023-02-09T06:58:54.307Z,4.80
2023-02-09T07:01:30.866Z,4.40
2023-02-09T07:04:08.372Z,4.60
2023-02-09T07:06:46.371Z,4.20
2023-02-09T07:09:23.629Z,5.00
2023-02-09T07:12:01.109Z,4.60
2023-02-09T07:14:38.352Z,5.30
2023-02-09T07:17:14.868Z,4.70
2023-02-09T07:19:53.578Z,5.00
2023-02-09T07:22:29.494Z,6.70
2023-02-09T07:25:07.982Z,5.10
2023-02-09T07:27:48.192Z,5.10
2023-02-09T07:30:27.389Z,5.00
2023-02-09T07:33:04.176Z,4.80
2023-02-09T07:35:41.476Z,4.10
2023-02-09T07:38:17.980Z,3.90
2023-02-09T07:40:55.458Z,3.30
2023-02-09T07:43:31.743Z,4.30
2023-02-09T07:46:14.967Z,4.00
2023-02-09T07:48:50.857Z,4.00
2023-02-09T07:51:29.146Z,4.40
2023-02-09T07:54:07.377Z,4.40
2023-02-09T07:56:46.502Z,4.80
2023-02-09T07:59:23.324Z,5.10
2023-02-09T08:02:01.054Z,4.70
2023-02-09T08:04:38.662Z,3.90
2023-02-09T08:07:16.032Z,4.30
2023-02-09T08:09:53.317Z,3.80
2023-02-09T08:12:50.592Z,6.50
2023-02-09T08:15:30.559Z,5.60
2023-02-09T08:18:16.666Z,5.70
2023-02-09T08:20:54.776Z,5.70
2023-02-09T08:23:35.793Z,6.40
2023-02-09T08:26:16.021Z,4.90
2023-02-09T08:28:54.178Z,4.60
2023-02-09T08:31:30.796Z,5.00
2023-02-09T08:34:07.410Z,4.70
2023-02-09T08:36:43.609Z,4.80
2023-02-09T08:39:20.074Z,5.20
2023-02-09T08:41:56.504Z,5.30
2023-02-09T08:45:06.043Z,4.90
2023-02-09T08:47:41.608Z,4.50
2023-02-09T08:50:18.877Z,4.90
2023-02-09T08:52:56.891Z,5.30
2023-02-09T08:55:34.256Z,5.10
2023-02-09T08:58:11.466Z,5.20
2023-02-09T09:00:48.088Z,4.50
2023-02-09T09:03:28.646Z,4.50
2023-02-09T09:06:07.321Z,6.10
2023-02-09T09:08:44.112Z,5.90
2023-02-09T09:11:21.120Z,8.50
2023-02-09T09:13:58.589Z,8.20
2023-02-09T09:16:35.222Z,5.70
2023-02-09T09:19:14.808Z,6.10
2023-02-09T09:21:51.854Z,6.00
2023-02-09T09:24:28.415Z,5.90
2023-02-09T09:27:05.468Z,6.40
2023-02-09T09:29:41.860Z,6.20
2023-02-09T09:32:24.859Z,5.10
2023-02-09T09:35:03.659Z,5.40
2023-02-09T09:37:40.355Z,4.90
2023-02-09T09:40:24.440Z,7.60
2023-02-09T09:43:04.949Z,6.30
2023-02-09T09:45:44.860Z,5.90
2023-02-09T09:48:30.661Z,5.40
2023-02-09T09:51:21.579Z,5.80
2023-02-09T09:54:01.477Z,4.00
2023-02-09T09:56:39.666Z,6.20
2023-02-09T09:59:23.084Z,5.80
2023-02-09T10:02:05.062Z,5.70
2023-02-09T10:04:42.767Z,5.20
2023-02-09T10:07:24.792Z,4.20
2023-02-09T10:10:16.312Z,6.00
2023-02-09T10:12:57.483Z,7.20
2023-02-09T10:15:38.521Z,7.00
2023-02-09T10:18:25.413Z,5.50
2023-02-09T10:21:08.779Z,5.10
2023-02-09T10:23:51.593Z,3.90
2023-02-09T10:26:43.206Z,4.40
2023-02-09T10:29:31.649Z,5.50
2023-02-09T10:32:22.195Z,5.90
2023-02-09T10:35:04.451Z,4.70
2023-02-09T10:37:45.192Z,5.00
2023-02-09T10:40:31.020Z,4.80
2023-02-09T10:43:20.997Z,4.90
2023-02-09T10:46:03.107Z,4.70
2023-02-09T10:48:47.566Z,5.60
2023-02-09T10:51:29.550Z,5.60
2023-02-09T10:54:10.740Z,4.70
2023-02-09T10:56:56.135Z,4.50
2023-02-09T10:59:36.652Z,5.80
2023-02-09T11:02:52.161Z,4.70
2023-02-09T11:05:38.400Z,5.00
2023-02-09T11:08:27.540Z,5.40
2023-02-09T11:11:16.028Z,5.20
2023-02-09T11:13:52.644Z,5.40
2023-02-09T11:17:14.819Z,4.60
2023-02-09T11:20:23.707Z,4.90
2023-02-09T11:23:37.430Z,5.20
2023-02-09T11:26:26.858Z,5.40
2023-02-09T11:29:11.921Z,6.60
2023-02-09T11:32:15.100Z,6.40
2023-02-09T11:35:13.467Z,5.00
2023-02-09T11:38:02.810Z,4.80
2023-02-09T11:40:49.188Z,5.60
2023-02-09T11:43:35.896Z,4.50
2023-02-09T11:46:21.364Z,4.30
2023-02-09T11:49:05.295Z,5.10
2023-02-09T11:51:47.483Z,4.50
2023-02-09T11:54:30.691Z,5.70
2023-02-09T11:57:22.203Z,5.50
2023-02-09T12:00:03.260Z,4.90
2023-02-09T12:02:55.619Z,5.00
2023-02-09T12:05:33.286Z,4.70
2023-02-09T12:08:47.761Z,5.00
2023-02-09T12:11:48.210Z,5.40
2023-02-09T12:14:57.710Z,4.90
2023-02-09T12:17:45.790Z,5.20
2023-02-09T12:20:53.508Z,5.50
2023-02-09T12:23:36.650Z,5.50
2023-02-09T12:26:43.626Z,4.60
2023-02-09T12:29:39.741Z,5.10
2023-02-09T12:32:52.431Z,5.70
2023-02-09T12:35:45.905Z,4.30
2023-02-09T12:38:27.160Z,5.30
2023-02-09T12:41:14.286Z,5.70
2023-02-09T12:43:54.419Z,5.90
2023-02-09T12:46:54.850Z,6.10
2023-02-09T12:49:40.751Z,5.90
2023-02-09T12:52:30.450Z,6.30
2023-02-09T12:55:20.276Z,5.60
2023-02-09T12:57:58.532Z,6.30
2023-02-09T13:00:59.058Z,6.00
2023-02-09T13:03:42.823Z,7.10
2023-02-09T13:06:41.762Z,6.00
2023-02-09T13:09:31.722Z,6.70
2023-02-09T13:12:18.203Z,6.10
2023-02-09T13:14:57.717Z,6.20
2023-02-09T13:17:46.471Z,6.20
2023-02-09T13:20:56.115Z,6.80
2023-02-09T13:23:44.942Z,6.30
2023-02-09T13:26:38.388Z,5.70
2023-02-09T13:29:21.781Z,6.70
2023-02-09T13:32:13.657Z,6.50
2023-02-09T13:35:03.054Z,4.10
2023-02-09T13:37:48.964Z,5.00
2023-02-09T13:40:31.275Z,5.90
2023-02-09T13:43:18.759Z,6.10
2023-02-09T13:45:58.569Z,5.50
2023-02-09T13:48:37.841Z,5.20
2023-02-09T13:51:26.261Z,5.70
2023-02-09T13:54:08.407Z,6.20
2023-02-09T13:56:47.523Z,6.40
2023-02-09T13:59:24.054Z,6.50
2023-02-09T14:02:01.576Z,5.50
2023-02-09T14:04:40.339Z,5.70
2023-02-09T14:07:18.866Z,6.20
2023-02-09T14:10:00.515Z,7.50
2023-02-09T14:13:09.021Z,6.90
2023-02-09T14:16:09.140Z,7.40
2023-02-09T14:19:04.444Z,7.70
2023-02-09T14:21:51.583Z,6.80
2023-02-09T14:24:29.078Z,7.10
2023-02-09T14:27:21.578Z,7.00
2023-02-09T14:29:59.028Z,6.40
2023-02-09T14:32:40.702Z,5.10
2023-02-09T14:35:29.675Z,5.90
2023-02-09T14:38:07.854Z,6.90
2023-02-09T14:40:45.337Z,6.30
2023-02-09T14:43:29.779Z,6.60
2023-02-09T14:46:07.650Z,6.40
2023-02-09T14:48:44.842Z,6.80
2023-02-09T14:51:23.223Z,6.70
2023-02-09T14:54:01.015Z,7.10
2023-02-09T14:56:38.785Z,7.30
2023-02-09T14:59:21.420Z,7.40
2023-02-09T15:02:00.756Z,6.90
2023-02-09T15:04:37.972Z,6.60
2023-02-09T15:07:22.306Z,6.90
2023-02-09T15:09:59.901Z,6.40
2023-02-09T15:12:37.658Z,7.90
2023-02-09T15:15:21.687Z,7.80
2023-02-09T15:17:59.889Z,7.50
2023-02-09T15:20:36.696Z,7.50
2023-02-09T15:23:12.987Z,7.40
2023-02-09T15:25:50.022Z,8.10
2023-02-09T15:28:31.646Z,7.80
2023-02-09T15:31:08.995Z,7.90
2023-02-09T15:33:46.707Z,7.60
2023-02-09T15:36:28.419Z,8.50
2023-02-09T15:39:05.993Z,7.10
2023-02-09T15:41:59.270Z,8.20
2023-02-09T15:44:53.082Z,8.00
2023-02-09T15:47:45.839Z,8.20
2023-02-09T15:50:23.828Z,8.00
2023-02-09T15:53:00.627Z,8.20
2023-02-09T15:55:37.688Z,8.50
2023-02-09T15:58:21.633Z,10.10
2023-02-09T16:00:58.841Z,10.00
2023-02-09T16:03:34.459Z,10.70
2023-02-09T16:06:19.747Z,11.50
2023-02-09T16:08:58.048Z,8.90
2023-02-09T16:11:40.606Z,9.20
2023-02-09T16:14:22.145Z,10.60
2023-02-09T16:16:59.231Z,9.50
2023-02-09T16:19:36.732Z,10.00
2023-02-09T16:22:16.624Z,8.30
2023-02-09T16:24:54.164Z,8.50
2023-02-09T16:27:32.485Z,9.60
2023-02-09T16:30:12.770Z,9.10
2023-02-09T16:32:49.464Z,8.70
2023-02-09T16:35:27.775Z,9.00
2023-02-09T16:38:04.994Z,9.20
2023-02-09T16:40:41.681Z,8.90
2023-02-09T16:43:19.303Z,9.80
2023-02-09T16:46:03.254Z,10.30
2023-02-09T16:48:42.958Z,9.90
2023-02-09T16:51:21.035Z,10.00
2023-02-09T16:54:00.853Z,9.90
2023-02-09T16:56:52.582Z,9.40
2023-02-09T16:59:30.946Z,11.70
2023-02-09T17:02:18.790Z,13.90
2023-02-09T17:04:55.641Z,11.50
2023-02-09T17:07:53.291Z,11.30
2023-02-09T17:10:34.722Z,9.50
2023-02-09T17:13:12.801Z,8.40
2023-02-09T17:15:52.933Z,10.10
2023-02-09T17:18:33.339Z,9.80
2023-02-09T17:21:13.103Z,8.50
2023-02-09T17:23:49.997Z,9.30
2023-02-09T17:26:26.849Z,9.20
2023-02-09T17:29:03.374Z,9.20
2023-02-09T17:31:52.350Z,8.30
2023-02-09T17:34:30.321Z,8.70
2023-02-09T17:37:07.138Z,9.90
2023-02-09T17:39:45.281Z,10.30
2023-02-09T17:42:27.425Z,9.60
2023-02-09T17:45:03.642Z,9.60
2023-02-09T17:47:40.766Z,10.20
2023-02-09T17:50:18.940Z,9.50
2023-02-09T17:52:56.706Z,10.30
2023-02-09T17:55:34.722Z,9.30
2023-02-09T17:58:11.399Z,9.80
2023-02-09T18:00:52.612Z,10.40
2023-02-09T18:03:30.270Z,9.90
2023-02-09T18:06:09.262Z,9.10
2023-02-09T18:08:47.439Z,9.90
2023-02-09T18:11:40.086Z,10.90
2023-02-09T18:14:19.739Z,10.30
2023-02-09T18:16:57.018Z,10.40
2023-02-09T18:19:33.320Z,13.40
2023-02-09T18:22:12.729Z,12.10
2023-02-09T18:24:50.026Z,11.20
2023-02-09T18:27:27.287Z,10.60
2023-02-09T18:30:04.347Z,10.50
2023-02-09T18:32:41.375Z,10.00
2023-02-09T18:35:23.041Z,11.50
2023-02-09T18:38:00.359Z,10.00
2023-02-09T18:40:37.555Z,9.30
2023-02-09T18:43:17.881Z,9.60
2023-02-09T18:45:54.789Z,10.00
2023-02-09T18:48:32.059Z,9.40
2023-02-09T18:51:11.227Z,10.90
2023-02-09T18:53:48.705Z,10.20
2023-02-09T18:56:30.658Z,10.10
2023-02-09T18:59:08.243Z,9.60
2023-02-09T19:01:45.343Z,9.40
2023-02-09T19:04:22.148Z,9.60
2023-02-09T19:07:00.475Z,11.00
2023-02-09T19:09:36.951Z,10.70
2023-02-09T19:12:13.889Z,11.70
2023-02-09T19:14:52.899Z,11.50
2023-02-09T19:17:29.318Z,11.10
2023-02-09T19:20:06.583Z,10.30
2023-02-09T19:22:44.074Z,10.20
2023-02-09T19:25:21.696Z,11.50
2023-02-09T19:27:59.376Z,11.50
2023-02-09T19:30:36.149Z,12.30
2023-02-09T19:33:14.528Z,9.10
2023-02-09T19:35:57.588Z,11.50
2023-02-09T19:38:34.794Z,11.20
2023-02-09T19:41:14.457Z,10.70
2023-02-09T19:43:51.425Z,11.30
2023-02-09T19:46:29.409Z,11.00
2023-02-09T19:49:05.991Z,12.20
2023-02-09T19:51:42.620Z,12.30
2023-02-09T19:54:19.127Z,9.80
2023-02-09T19:56:55.741Z,10.00
2023-02-09T19:59:32.538Z,10.40
2023-02-09T20:02:09.974Z,11.10
2023-02-09T20:04:48.070Z,11.40
2023-02-09T20:07:24.912Z,10.80
2023-02-09T20:10:01.918Z,10.30
2023-02-09T20:12:39.324Z,12.20
2023-02-09T20:15:17.247Z,10.40
2023-02-09T20:17:54.208Z,9.60
2023-02-09T20:20:31.327Z,10.40
2023-02-09T20:23:08.281Z,10.00
2023-02-09T20:25:48.219Z,10.00
2023-02-09T20:28:25.633Z,9.80
2023-02-09T20:31:02.094Z,10.60
2023-02-09T20:33:39.508Z,9.10
2023-02-09T20:36:17.404Z,10.30
2023-02-09T20:38:54.115Z,11.60
2023-02-09T20:41:31.257Z,8.20
2023-02-09T20:44:25.119Z,10.00
2023-02-09T20:47:05.575Z,10.30
2023-02-09T20:49:42.080Z,9.00
2023-02-09T20:52:18.319Z,8.10
2023-02-09T20:54:55.055Z,8.80
2023-02-09T20:57:31.754Z,10.00
2023-02-09T21:00:11.082Z,9.70
2023-02-09T21:02:47.934Z,10.80
2023-02-09T21:05:25.382Z,9.60
2023-02-09T21:08:04.654Z,8.90
2023-02-09T21:10:41.273Z,8.90
2023-02-09T21:13:19.744Z,9.50
2023-02-09T21:15:56.326Z,9.10
2023-02-09T21:18:32.952Z,9.10
2023-02-09T21:21:12.218Z,9.20
2023-02-09T21:23:49.274Z,7.60
2023-02-09T21:26:26.838Z,9.60
2023-02-09T21:29:05.156Z,7.40
2023-02-09T21:31:42.024Z,7.70
2023-02-09T21:34:23.134Z,8.00
2023-02-09T21:36:59.751Z,8.90
2023-02-09T21:39:37.424Z,7.90
2023-02-09T21:42:30.862Z,7.80
2023-02-09T21:45:08.127Z,8.60
2023-02-09T21:47:45.550Z,9.20
2023-02-09T21:50:23.358Z,8.00
2023-02-09T21:53:02.008Z,9.30
2023-02-09T21:55:39.700Z,7.60
2023-02-09T21:58:16.776Z,9.40
2023-02-09T22:01:01.222Z,9.30
2023-02-09T22:03:39.230Z,7.90
2023-02-09T22:06:16.660Z,7.80
2023-02-09T22:08:53.897Z,7.50
2023-02-09T22:11:30.033Z,8.80
2023-02-09T22:14:06.395Z,6.90
2023-02-09T22:16:43.274Z,7.00
2023-02-09T22:19:20.577Z,7.70
2023-02-09T22:21:58.096Z,6.40
2023-02-09T22:24:35.591Z,8.40
2023-02-09T22:27:12.771Z,7.30
2023-02-09T22:29:49.741Z,7.40
2023-02-09T22:32:26.251Z,8.20
2023-02-09T22:35:02.942Z,7.50
2023-02-09T22:37:39.978Z,6.10
2023-02-09T22:40:21.834Z,6.30
2023-02-09T22:42:58.351Z,6.50
2023-02-09T22:45:34.701Z,7.50
2023-02-09T22:48:12.179Z,8.80
2023-02-09T22:50:49.012Z,8.60
2023-02-09T22:53:25.282Z,8.30
2023-02-09T22:56:04.270Z,8.40
2023-02-09T22:58:41.347Z,6.70
2023-02-09T23:01:18.394Z,6.00
2023-02-09T23:03:56.157Z,7.00
2023-02-09T23:06:34.490Z,9.10
2023-02-09T23:09:12.196Z,9.30
2023-02-09T23:11:49.438Z,10.60
2023-02-09T23:14:26.815Z,9.50
2023-02-09T23:17:04.131Z,10.10
2023-02-09T23:19:43.111Z,8.90
2023-02-09T23:22:20.497Z,9.90
2023-02-09T23:24:56.780Z,11.00
2023-02-09T23:27:34.333Z,8.00
2023-02-09T23:30:13.752Z,10.10
2023-02-09T23:32:51.295Z,9.90
2023-02-09T23:35:28.045Z,8.70
2023-02-09T23:38:04.377Z,9.70
2023-02-09T23:40:45.151Z,9.70
2023-02-09T23:43:23.032Z,8.30
2023-02-09T23:45:59.203Z,7.80
2023-02-09T23:48:36.220Z,7.90
2023-02-09T23:51:18.401Z,8.70
2023-02-09T23:53:57.147Z,8.20
2023-02-09T23:56:37.470Z,7.90
2023-02-09T23:59:18.717Z,8.60
